Time;durP1;ratioP1;P1;durP2;ratioP2;P2;SDS_P1;SDS_P2;PMS_P1;PMS_P2;Temp;Humidity;BMP_temperature;BMP_pressure;BME280_temperature;BME280_humidity;BME280_pressure;Samples;Min_cycle;Max_cycle;Signal;HPM_P1;HPM_P2
2022/07/11 00:01:42;;;;;;;8.32;4.05;;;16.30;99.90;;;;;;4987945;28;20050;-58
2022/07/11 00:04:08;;;;;;;4.13;3.58;;;16.30;99.90;;;;;;4988387;28;20027;-58
2022/07/11 00:06:33;;;;;;;5.85;3.42;;;16.30;99.90;;;;;;4987269;28;20033;-57
2022/07/11 00:08:59;;;;;;;5.22;3.50;;;16.30;99.90;;;;;;4989415;28;20034;-57
2022/07/11 00:11:25;;;;;;;4.95;3.70;;;16.30;99.90;;;;;;4986482;28;20507;-58
2022/07/11 00:13:51;;;;;;;11.48;4.20;;;16.30;99.90;;;;;;4990189;28;20141;-58
2022/07/11 00:16:17;;;;;;;9.77;4.47;;;16.20;99.90;;;;;;4963026;28;20054;-56
2022/07/11 00:18:42;;;;;;;9.48;5.40;;;16.20;99.90;;;;;;4990682;28;20041;-58
2022/07/11 00:21:08;;;;;;;9.43;4.20;;;16.20;99.90;;;;;;4988419;28;20026;-59
2022/07/11 00:23:34;;;;;;;9.35;4.45;;;16.20;99.90;;;;;;4990738;28;20034;-58
2022/07/11 00:26:00;;;;;;;9.63;4.43;;;16.20;99.90;;;;;;4989349;28;20031;-58
2022/07/11 00:28:26;;;;;;;9.30;4.70;;;16.20;99.90;;;;;;4987662;28;20042;-59
2022/07/11 00:30:52;;;;;;;10.25;4.55;;;16.20;99.90;;;;;;4988910;28;20498;-59
2022/07/11 00:33:18;;;;;;;8.38;4.10;;;16.20;99.90;;;;;;4991312;28;20133;-59
2022/07/11 00:35:44;;;;;;;6.88;4.47;;;16.20;99.90;;;;;;4993972;28;20207;-58
2022/07/11 00:38:10;;;;;;;9.93;4.60;;;16.20;99.90;;;;;;4991625;28;20110;-59
2022/07/11 00:40:36;;;;;;;6.90;4.22;;;16.10;99.90;;;;;;4991180;28;20026;-58
2022/07/11 00:43:05;;;;;;;7.60;4.13;;;16.10;99.90;;;;;;4989740;28;20496;-58
2022/07/11 00:45:31;;;;;;;7.28;4.45;;;16.10;99.90;;;;;;4978531;28;20030;-59
2022/07/11 00:47:57;;;;;;;6.85;4.22;;;16.20;99.90;;;;;;4991409;28;20019;-59
2022/07/11 00:50:24;;;;;;;3.90;3.50;;;16.10;99.90;;;;;;4992532;28;20046;-58
2022/07/11 00:52:54;;;;;;;7.28;4.10;;;16.10;99.90;;;;;;4987503;28;20045;-58
2022/07/11 00:55:21;;;;;;;5.72;4.03;;;16.10;99.90;;;;;;4990571;28;20034;-58
2022/07/11 00:57:46;;;;;;;6.10;3.88;;;16.10;99.90;;;;;;4991039;28;20030;-59
2022/07/11 01:00:13;;;;;;;7.43;4.57;;;16.10;99.90;;;;;;4992290;28;20030;-56
2022/07/11 01:02:39;;;;;;;7.47;4.30;;;16.10;99.90;;;;;;4991759;28;20029;-58
2022/07/11 01:05:05;;;;;;;6.30;3.33;;;16.00;99.90;;;;;;4987746;28;20030;-57
2022/07/11 01:07:31;;;;;;;5.85;4.25;;;16.10;99.90;;;;;;4990957;28;20032;-58
2022/07/11 01:09:57;;;;;;;6.80;3.65;;;16.10;99.90;;;;;;4979710;28;20121;-56
2022/07/11 01:12:23;;;;;;;5.00;3.67;;;16.10;99.90;;;;;;4988807;28;20121;-58
2022/07/11 01:14:57;;;;;;;6.00;3.67;;;16.00;99.90;;;;;;4970371;28;20046;-58
2022/07/11 01:17:23;;;;;;;5.47;3.88;;;16.00;99.90;;;;;;4990488;28;20038;-57
2022/07/11 01:19:49;;;;;;;7.05;4.43;;;16.00;99.90;;;;;;4993495;28;20026;-58
2022/07/11 01:22:15;;;;;;;8.65;3.83;;;16.00;99.90;;;;;;4990249;28;20504;-58
2022/07/11 01:24:43;;;;;;;6.80;3.92;;;16.00;99.90;;;;;;4991506;28;20029;-58
2022/07/11 01:27:09;;;;;;;6.63;3.90;;;15.90;99.90;;;;;;4999598;28;20053;-56
2022/07/11 01:29:34;;;;;;;6.53;3.80;;;15.90;99.90;;;;;;4992664;28;20058;-58
2022/07/11 01:32:00;;;;;;;6.75;3.50;;;15.80;99.90;;;;;;4994423;28;20046;-57
2022/07/11 01:34:26;;;;;;;6.93;3.83;;;15.80;99.90;;;;;;4999219;28;20041;-56
2022/07/11 01:36:51;;;;;;;7.70;3.97;;;15.70;99.90;;;;;;4991218;28;20037;-59
2022/07/11 01:39:17;;;;;;;6.07;3.80;;;15.60;99.90;;;;;;4992199;28;20037;-58
2022/07/11 01:41:43;;;;;;;6.00;3.80;;;15.60;99.90;;;;;;4990459;28;20049;-58
2022/07/11 01:44:08;;;;;;;9.38;4.50;;;15.60;99.90;;;;;;4994234;28;20112;-58
2022/07/11 01:46:34;;;;;;;6.03;4.47;;;15.60;99.90;;;;;;4996530;28;20097;-59
2022/07/11 01:49:00;;;;;;;7.97;4.57;;;15.50;99.90;;;;;;4992299;28;20500;-58
2022/07/11 01:51:27;;;;;;;8.48;4.25;;;15.60;99.90;;;;;;4991042;28;20030;-59
2022/07/11 01:53:55;;;;;;;6.05;4.18;;;15.60;99.90;;;;;;4990792;28;20097;-58
2022/07/11 01:56:21;;;;;;;6.22;4.13;;;15.60;99.90;;;;;;4991649;28;20045;-58
2022/07/11 01:58:47;;;;;;;7.00;4.15;;;15.60;99.90;;;;;;4991754;28;20106;-58
2022/07/11 02:01:12;;;;;;;9.68;4.93;;;15.60;99.90;;;;;;4991001;28;20455;-57
2022/07/11 02:03:38;;;;;;;7.45;4.57;;;15.50;99.90;;;;;;4995137;28;20030;-59
2022/07/11 02:06:05;;;;;;;9.82;4.47;;;15.60;99.90;;;;;;4995416;28;20434;-58
2022/07/11 02:08:30;;;;;;;8.38;3.58;;;15.50;99.90;;;;;;4998474;28;20026;-59
2022/07/11 02:10:56;;;;;;;8.93;3.60;;;15.50;99.90;;;;;;4987979;28;20064;-57
2022/07/11 02:13:25;;;;;;;6.38;4.03;;;15.40;99.90;;;;;;4990720;28;20090;-57
2022/07/11 02:15:53;;;;;;;6.97;3.90;;;15.40;99.90;;;;;;4973598;28;20046;-58
2022/07/11 02:18:20;;;;;;;8.95;3.97;;;15.30;99.90;;;;;;4990259;28;20037;-55
2022/07/11 02:20:46;;;;;;;7.63;3.60;;;15.20;99.90;;;;;;4993901;28;20042;-58
2022/07/11 02:23:12;;;;;;;7.75;4.25;;;15.20;99.90;;;;;;4989663;28;20488;-59
2022/07/11 02:25:38;;;;;;;10.25;4.10;;;15.20;99.90;;;;;;4990420;28;20037;-57
2022/07/11 02:28:08;;;;;;;5.57;4.25;;;15.20;99.90;;;;;;4990372;28;20369;-59
2022/07/11 02:30:34;;;;;;;8.68;4.00;;;15.20;99.90;;;;;;5003034;28;20612;-59
2022/07/11 02:33:00;;;;;;;10.98;3.75;;;15.30;99.90;;;;;;4989729;28;20073;-59
2022/07/11 02:35:26;;;;;;;10.43;4.60;;;15.30;99.90;;;;;;4990309;28;20065;-58
2022/07/11 02:37:51;;;;;;;9.73;4.10;;;15.40;99.90;;;;;;4990957;28;20049;-57
2022/07/11 02:40:17;;;;;;;10.10;4.45;;;15.50;99.90;;;;;;4990916;28;20538;-58
2022/07/11 02:42:43;;;;;;;9.38;4.25;;;15.50;99.90;;;;;;4990074;28;20026;-59
2022/07/11 02:45:10;;;;;;;7.00;4.05;;;15.50;99.90;;;;;;4987934;28;20034;-59
2022/07/11 02:47:39;;;;;;;9.93;4.25;;;15.60;99.90;;;;;;4990636;28;20165;-59
2022/07/11 02:50:10;;;;;;;13.20;4.25;;;15.60;99.90;;;;;;4990551;28;20030;-59
2022/07/11 02:52:37;;;;;;;17.35;4.93;;;15.60;99.90;;;;;;4987447;28;20072;-58
2022/07/11 02:55:03;;;;;;;8.75;4.47;;;15.50;99.90;;;;;;4985707;28;20062;-59
2022/07/11 02:57:29;;;;;;;8.43;4.28;;;15.50;99.90;;;;;;4988847;28;20061;-58
2022/07/11 02:59:54;;;;;;;9.25;4.20;;;15.50;99.90;;;;;;4991393;28;20034;-58
2022/07/11 03:02:20;;;;;;;7.75;4.45;;;15.50;99.90;;;;;;4985981;28;20039;-59
2022/07/11 03:04:46;;;;;;;10.77;4.43;;;15.40;99.90;;;;;;4988745;28;20625;-58
2022/07/11 03:07:11;;;;;;;9.05;4.50;;;15.40;99.90;;;;;;4992420;28;20108;-58
2022/07/11 03:09:37;;;;;;;11.38;4.93;;;15.40;99.90;;;;;;4990870;28;20046;-57
2022/07/11 03:12:03;;;;;;;9.55;4.20;;;15.40;99.90;;;;;;4994397;28;20026;-59
2022/07/11 03:14:29;;;;;;;9.30;4.43;;;15.40;99.90;;;;;;4990508;28;20029;-57
2022/07/11 03:16:55;;;;;;;10.85;4.00;;;15.50;99.90;;;;;;4967947;28;20082;-59
2022/07/11 03:19:21;;;;;;;17.98;5.32;;;15.50;99.90;;;;;;4990088;28;20042;-59
2022/07/11 03:21:47;;;;;;;8.80;5.03;;;15.60;99.90;;;;;;4991012;28;20047;-59
2022/07/11 03:24:12;;;;;;;7.13;3.80;;;15.60;99.90;;;;;;4991513;28;20030;-57
2022/07/11 03:26:38;;;;;;;7.20;3.60;;;15.70;99.90;;;;;;4998757;28;20023;-58
2022/07/11 03:29:04;;;;;;;8.63;4.28;;;15.70;99.90;;;;;;4990608;28;20050;-58
2022/07/11 03:31:30;;;;;;;7.15;3.97;;;15.70;99.90;;;;;;4992857;28;20040;-56
2022/07/11 03:33:56;;;;;;;8.60;4.80;;;15.70;99.90;;;;;;4993880;28;20113;-59
2022/07/11 03:36:21;;;;;;;8.40;4.50;;;15.70;99.90;;;;;;4992535;28;20054;-58
2022/07/11 03:38:47;;;;;;;10.75;5.13;;;15.70;99.90;;;;;;4994324;28;20030;-57
2022/07/11 03:41:13;;;;;;;9.93;4.47;;;15.70;99.90;;;;;;4991683;28;20022;-58
2022/07/11 03:43:38;;;;;;;9.70;4.82;;;15.80;99.90;;;;;;4990610;28;20022;-57
2022/07/11 03:46:06;;;;;;;11.05;4.72;;;15.90;99.90;;;;;;4988598;28;20038;-58
2022/07/11 03:48:32;;;;;;;8.80;4.70;;;15.90;99.90;;;;;;4991226;28;20030;-58
2022/07/11 03:50:57;;;;;;;9.93;4.75;;;15.90;99.90;;;;;;4989402;28;20026;-57
2022/07/11 03:53:23;;;;;;;6.22;4.45;;;16.00;99.90;;;;;;4989942;28;20054;-59
2022/07/11 03:55:48;;;;;;;9.23;4.45;;;16.00;99.90;;;;;;4986692;28;20038;-59
2022/07/11 03:58:14;;;;;;;10.80;4.53;;;16.00;99.90;;;;;;4988428;28;20484;-59
2022/07/11 04:00:40;;;;;;;8.13;4.20;;;16.00;99.90;;;;;;4988610;28;20037;-59
2022/07/11 04:03:06;;;;;;;10.80;4.05;;;16.00;99.90;;;;;;4987189;28;20045;-58
2022/07/11 04:05:31;;;;;;;14.02;4.53;;;16.00;99.90;;;;;;4995167;28;20057;-58
2022/07/11 04:07:57;;;;;;;7.50;4.38;;;16.10;99.90;;;;;;5000883;28;20038;-59
2022/07/11 04:10:23;;;;;;;8.45;4.68;;;16.10;99.90;;;;;;4991911;28;20058;-58
2022/07/11 04:12:49;;;;;;;18.33;6.97;;;16.10;99.90;;;;;;4996886;28;20514;-58
2022/07/11 04:15:15;;;;;;;11.10;4.88;;;16.10;99.90;;;;;;4967078;28;20117;-58
2022/07/11 04:17:41;;;;;;;11.07;6.00;;;16.20;99.90;;;;;;4989566;28;20046;-58
2022/07/11 04:20:07;;;;;;;10.10;4.10;;;16.20;99.90;;;;;;4996037;28;20041;-58
2022/07/11 04:22:33;;;;;;;11.18;4.55;;;16.30;99.90;;;;;;4991449;28;20101;-58
2022/07/11 04:24:58;;;;;;;10.70;5.47;;;16.30;99.90;;;;;;4996413;28;20555;-59
2022/07/11 04:27:25;;;;;;;9.05;4.63;;;16.30;99.90;;;;;;5022798;23;20518;-59
2022/07/11 04:29:51;;;;;;;12.52;5.75;;;16.30;99.90;;;;;;5016388;28;20099;-57
2022/07/11 04:32:17;;;;;;;12.00;5.30;;;16.40;99.90;;;;;;5009759;28;20030;-56
2022/07/11 04:34:43;;;;;;;11.65;5.38;;;16.40;99.90;;;;;;5003747;28;20022;-59
2022/07/11 04:37:08;;;;;;;10.13;5.72;;;16.50;99.90;;;;;;4997772;28;20404;-57
2022/07/11 04:39:34;;;;;;;10.40;4.68;;;16.50;99.90;;;;;;4997407;28;20389;-58
2022/07/11 04:42:03;;;;;;;14.05;5.78;;;16.40;99.90;;;;;;4991763;28;20034;-58
2022/07/11 04:44:29;;;;;;;13.38;5.57;;;16.40;99.90;;;;;;4990323;28;20122;-57
2022/07/11 04:46:55;;;;;;;15.43;5.55;;;16.50;99.90;;;;;;4990908;28;20109;-57
2022/07/11 04:49:20;;;;;;;15.10;6.03;;;16.60;99.90;;;;;;4993446;28;20020;-60
2022/07/11 04:51:46;;;;;;;10.35;5.57;;;16.60;99.90;;;;;;4993917;28;20037;-59
2022/07/11 04:54:12;;;;;;;15.55;5.57;;;16.70;99.90;;;;;;4990382;28;20369;-58
2022/07/11 04:56:38;;;;;;;11.20;5.20;;;16.80;99.90;;;;;;4989220;28;20031;-61
2022/07/11 04:59:04;;;;;;;20.42;6.78;;;16.80;99.90;;;;;;4989807;28;20476;-60
2022/07/11 05:01:30;;;;;;;15.75;5.28;;;16.80;99.90;;;;;;4988789;28;20117;-61
2022/07/11 05:03:56;;;;;;;12.27;5.18;;;16.80;99.90;;;;;;4984859;28;20486;-59
2022/07/11 05:06:22;;;;;;;9.63;5.80;;;16.70;99.90;;;;;;4989454;28;20037;-60
2022/07/11 05:08:47;;;;;;;9.40;5.68;;;16.70;99.90;;;;;;4998270;28;20026;-58
2022/07/11 05:11:13;;;;;;;8.18;5.90;;;16.70;99.90;;;;;;5003342;28;20488;-58
2022/07/11 05:13:39;;;;;;;13.55;6.13;;;16.80;99.90;;;;;;4994198;28;20064;-57
2022/07/11 05:16:05;;;;;;;15.55;6.97;;;16.80;99.90;;;;;;4972381;28;20101;-56
2022/07/11 05:18:31;;;;;;;11.57;6.57;;;16.90;99.90;;;;;;4993139;28;20030;-57
2022/07/11 05:20:57;;;;;;;13.95;7.45;;;16.90;99.90;;;;;;4992608;28;20034;-55
2022/07/11 05:23:23;;;;;;;12.60;7.07;;;16.90;99.90;;;;;;4992322;28;20029;-60
2022/07/11 05:25:48;;;;;;;10.73;7.53;;;17.00;99.90;;;;;;4994248;28;20030;-58
2022/07/11 05:28:14;;;;;;;15.10;6.68;;;17.20;99.90;;;;;;4993458;28;20626;-58
2022/07/11 05:30:40;;;;;;;9.65;6.40;;;17.40;99.90;;;;;;4993685;28;20033;-57
2022/07/11 05:33:05;;;;;;;10.93;6.55;;;17.50;99.90;;;;;;4995627;28;20107;-59
2022/07/11 05:35:31;;;;;;;13.25;7.57;;;17.50;99.90;;;;;;4989769;28;20049;-61
2022/07/11 05:37:57;;;;;;;13.13;7.20;;;17.70;99.90;;;;;;4990226;28;20037;-59
2022/07/11 05:40:22;;;;;;;15.38;8.23;;;17.60;99.90;;;;;;4994776;28;20030;-57
2022/07/11 05:42:48;;;;;;;12.13;7.47;;;17.50;99.90;;;;;;4989053;28;20026;-55
2022/07/11 05:45:13;;;;;;;11.25;7.03;;;17.60;99.90;;;;;;4992322;28;20530;-61
2022/07/11 05:47:39;;;;;;;9.13;6.70;;;17.60;99.90;;;;;;4997007;28;20663;-58
2022/07/11 05:50:06;;;;;;;13.80;7.47;;;17.60;99.90;;;;;;4995861;28;20041;-59
2022/07/11 05:52:32;;;;;;;12.45;6.13;;;17.60;99.90;;;;;;4990708;28;20026;-59
2022/07/11 05:54:58;;;;;;;13.60;5.53;;;17.70;99.90;;;;;;4997971;28;20040;-56
2022/07/11 05:57:24;;;;;;;8.07;4.45;;;17.70;99.90;;;;;;4991776;28;20045;-57
2022/07/11 05:59:49;;;;;;;8.52;4.45;;;17.70;99.90;;;;;;4996887;28;20026;-59
2022/07/11 06:02:15;;;;;;;10.05;4.72;;;17.70;99.90;;;;;;4992530;28;20053;-60
2022/07/11 06:04:42;;;;;;;12.10;4.40;;;17.70;99.90;;;;;;5000895;28;20032;-59
2022/07/11 06:07:08;;;;;;;6.97;3.70;;;17.80;99.90;;;;;;4991401;28;20019;-60
2022/07/11 06:09:35;;;;;;;11.32;4.15;;;17.90;99.90;;;;;;4993893;28;20025;-59
2022/07/11 06:12:00;;;;;;;14.82;4.10;;;17.90;99.90;;;;;;4997891;28;20041;-59
2022/07/11 06:14:26;;;;;;;11.07;3.55;;;17.90;99.90;;;;;;4996238;28;20116;-60
2022/07/11 06:16:52;;;;;;;10.65;3.38;;;18.10;99.90;;;;;;4972611;28;20125;-61
2022/07/11 06:19:18;;;;;;;12.50;5.00;;;18.20;99.90;;;;;;4993630;28;20029;-61
2022/07/11 06:21:43;;;;;;;13.90;4.07;;;18.20;99.90;;;;;;4990120;28;20073;-59
2022/07/11 06:24:09;;;;;;;11.38;3.80;;;18.20;99.90;;;;;;4991610;28;20540;-60
2022/07/11 06:26:35;;;;;;;16.73;3.63;;;18.20;99.90;;;;;;4997075;28;20072;-58
2022/07/11 06:29:01;;;;;;;7.82;3.20;;;18.30;99.90;;;;;;4990381;28;20105;-60
2022/07/11 06:31:27;;;;;;;11.65;3.45;;;18.30;99.90;;;;;;4993668;28;20026;-57
2022/07/11 06:33:57;;;;;;;9.38;3.13;;;18.30;99.90;;;;;;4989412;28;20041;-57
2022/07/11 06:36:26;;;;;;;11.18;4.10;;;18.30;99.90;;;;;;4996373;28;20085;-57
2022/07/11 06:38:52;;;;;;;8.68;2.78;;;18.40;99.90;;;;;;4989349;28;20061;-58
2022/07/11 06:41:18;;;;;;;7.57;3.05;;;18.50;99.90;;;;;;4990168;28;20642;-58
2022/07/11 06:43:47;;;;;;;7.50;3.45;;;18.50;99.90;;;;;;4989027;28;20396;-59
2022/07/11 06:46:16;;;;;;;10.98;3.65;;;18.50;99.90;;;;;;4993409;28;20392;-57
2022/07/11 06:48:42;;;;;;;18.42;3.53;;;18.50;99.90;;;;;;4989852;28;20030;-56
2022/07/11 06:51:09;;;;;;;14.00;3.15;;;18.50;99.90;;;;;;4990448;28;20047;-60
2022/07/11 06:53:34;;;;;;;9.18;3.35;;;18.30;99.90;;;;;;4990324;28;20026;-56
2022/07/11 06:56:00;;;;;;;9.57;3.20;;;18.20;99.90;;;;;;4988489;28;20526;-59
2022/07/11 06:58:31;;;;;;;10.57;3.65;;;18.10;99.90;;;;;;4990965;28;20105;-59
2022/07/11 07:01:02;;;;;;;8.32;2.80;;;18.00;99.90;;;;;;4990447;28;20049;-57
2022/07/11 07:03:28;;;;;;;9.60;3.75;;;18.00;99.90;;;;;;4989996;28;20484;-57
2022/07/11 07:05:55;;;;;;;7.10;2.97;;;18.00;99.90;;;;;;4994173;28;20030;-58
2022/07/11 07:08:26;;;;;;;4.78;2.53;;;18.00;99.90;;;;;;4989917;28;20069;-58
2022/07/11 07:10:52;;;;;;;8.35;2.72;;;18.00;99.90;;;;;;4991513;28;20057;-57
2022/07/11 07:13:19;;;;;;;3.83;1.98;;;17.90;99.90;;;;;;4992437;28;20492;-58
2022/07/11 07:15:45;;;;;;;8.35;2.60;;;18.00;99.90;;;;;;4990077;28;20026;-57
2022/07/11 07:18:11;;;;;;;10.85;2.90;;;17.90;99.90;;;;;;4972022;28;20053;-58
2022/07/11 07:20:37;;;;;;;4.93;2.10;;;17.80;99.90;;;;;;4998648;28;20034;-58
2022/07/11 07:23:03;;;;;;;6.63;2.55;;;18.00;99.90;;;;;;4992251;28;20404;-60
2022/07/11 07:25:28;;;;;;;12.30;2.85;;;18.10;99.90;;;;;;5000106;28;20028;-56
2022/07/11 07:27:54;;;;;;;5.70;2.90;;;18.00;99.90;;;;;;4987599;28;20070;-58
2022/07/11 07:30:19;;;;;;;5.90;2.40;;;18.00;99.90;;;;;;4992578;28;20033;-60
2022/07/11 07:32:45;;;;;;;9.25;2.90;;;18.10;99.90;;;;;;4992069;28;20030;-60
2022/07/11 07:35:11;;;;;;;6.00;2.30;;;18.10;99.90;;;;;;4994662;28;20031;-59
2022/07/11 07:37:36;;;;;;;5.95;2.03;;;18.10;99.90;;;;;;4990344;28;20026;-59
2022/07/11 07:40:02;;;;;;;5.53;2.00;;;18.20;99.90;;;;;;4997554;28;20044;-56
2022/07/11 07:42:28;;;;;;;5.03;2.00;;;18.40;99.90;;;;;;4993264;28;20038;-59
2022/07/11 07:44:54;;;;;;;3.80;2.25;;;18.60;99.90;;;;;;4994330;28;20026;-56
2022/07/11 07:47:20;;;;;;;3.67;2.20;;;18.60;99.90;;;;;;4993452;28;20105;-58
2022/07/11 07:49:45;;;;;;;7.95;2.60;;;18.50;99.90;;;;;;4998647;28;20026;-60
2022/07/11 07:52:11;;;;;;;5.70;2.80;;;18.50;99.90;;;;;;4993485;28;20035;-58
2022/07/11 07:54:37;;;;;;;2.60;2.22;;;18.60;99.90;;;;;;4995277;28;20399;-59
2022/07/11 07:57:02;;;;;;;5.95;3.13;;;18.70;99.90;;;;;;4991632;28;20034;-60
2022/07/11 07:59:28;;;;;;;9.00;2.80;;;18.60;99.90;;;;;;4995521;28;20036;-58
2022/07/11 08:01:54;;;;;;;5.90;3.00;;;18.50;99.90;;;;;;4993932;28;20034;-60
2022/07/11 08:04:19;;;;;;;4.53;2.83;;;18.40;99.90;;;;;;4996013;28;20080;-58
2022/07/11 08:06:45;;;;;;;7.40;3.58;;;18.50;99.90;;;;;;4995080;28;20181;-59
2022/07/11 08:09:12;;;;;;;7.55;3.80;;;18.80;99.90;;;;;;4995183;28;20034;-60
2022/07/11 08:11:39;;;;;;;8.07;3.05;;;19.00;99.90;;;;;;4992104;28;20082;-59
2022/07/11 08:14:07;;;;;;;6.63;3.47;;;18.90;99.90;;;;;;4995559;28;20030;-58
2022/07/11 08:16:33;;;;;;;6.85;4.10;;;18.80;99.90;;;;;;4994951;28;20440;-58
2022/07/11 08:19:00;;;;;;;8.50;6.05;;;18.60;99.90;;;;;;4969364;28;20074;-59
2022/07/11 08:21:27;;;;;;;10.00;6.20;;;18.60;99.90;;;;;;4991807;28;20097;-59
2022/07/11 08:23:52;;;;;;;12.63;7.70;;;18.40;99.90;;;;;;4993531;28;20099;-59
2022/07/11 08:26:18;;;;;;;10.80;6.65;;;18.60;99.90;;;;;;4991219;28;20069;-60
2022/07/11 08:28:43;;;;;;;10.30;6.78;;;18.80;99.90;;;;;;4994147;28;20031;-58
2022/07/11 08:31:09;;;;;;;9.75;6.85;;;19.20;99.90;;;;;;4996318;28;20412;-60
2022/07/11 08:33:35;;;;;;;13.05;8.40;;;19.80;99.90;;;;;;4993089;28;20038;-61
2022/07/11 08:36:00;;;;;;;9.43;6.20;;;20.30;99.90;;;;;;4992881;28;20096;-60
2022/07/11 08:38:26;;;;;;;6.15;4.90;;;20.90;99.90;;;;;;4991356;28;20030;-57
2022/07/11 08:40:52;;;;;;;7.95;4.80;;;21.50;99.90;;;;;;4993376;28;20483;-57
2022/07/11 08:43:22;;;;;;;6.22;4.10;;;21.70;99.90;;;;;;4991731;28;20026;-58
2022/07/11 08:45:48;;;;;;;6.00;4.25;;;22.30;99.90;;;;;;4994979;28;20030;-60
2022/07/11 08:48:16;;;;;;;6.47;4.88;;;22.40;99.10;;;;;;4994741;28;20109;-57
2022/07/11 08:50:41;;;;;;;5.82;3.95;;;22.10;99.60;;;;;;4992879;28;20027;-60
2022/07/11 08:53:07;;;;;;;7.22;4.50;;;22.30;99.50;;;;;;4996182;28;20029;-55
2022/07/11 08:55:33;;;;;;;5.78;4.28;;;22.70;98.80;;;;;;4994358;28;20054;-60
2022/07/11 08:57:59;;;;;;;6.53;4.32;;;22.90;98.50;;;;;;4995192;28;20165;-57
2022/07/11 09:00:25;;;;;;;6.22;3.75;;;23.20;98.90;;;;;;4991830;28;20026;-59
2022/07/11 09:02:53;;;;;;;5.10;3.75;;;23.50;96.50;;;;;;4991765;28;20033;-58
2022/07/11 09:05:19;;;;;;;7.38;4.10;;;23.70;97.60;;;;;;4990342;28;20384;-59
2022/07/11 09:07:49;;;;;;;5.90;3.95;;;23.50;96.80;;;;;;4991444;28;20018;-58
2022/07/11 09:10:16;;;;;;;9.35;4.25;;;24.00;96.80;;;;;;4992371;28;20042;-58
2022/07/11 09:13:05;;;;;;;8.45;4.78;;;23.70;96.30;;;;;;4992747;28;20034;-60
2022/07/11 09:15:36;;;;;;;5.75;3.58;;;23.00;97.20;;;;;;4993728;28;20045;-59
2022/07/11 09:18:05;;;;;;;6.75;3.92;;;22.80;97.50;;;;;;4978523;28;20112;-60
2022/07/11 09:26:37;;;;;;;6.20;3.58;;;22.50;98.10;;;;;;4991544;28;20108;-59
2022/07/11 09:29:10;;;;;;;6.03;4.05;;;22.60;98.80;;;;;;4997473;28;20037;-57
2022/07/11 09:31:38;;;;;;;11.18;4.43;;;22.20;98.90;;;;;;4992493;28;20037;-58
2022/07/11 09:34:04;;;;;;;9.95;4.35;;;21.80;99.30;;;;;;4993041;28;20027;-58
2022/07/11 09:36:47;;;;;;;5.75;4.45;;;21.70;99.90;;;;;;4992264;28;20381;-59
2022/07/11 09:39:22;;;;;;;7.95;4.93;;;21.50;99.90;;;;;;4992370;28;20054;-58
2022/07/11 09:41:50;;;;;;;4.45;3.72;;;21.40;99.90;;;;;;4989131;28;20034;-58
2022/07/11 09:44:31;;;;;;;7.95;5.60;;;21.40;99.90;;;;;;4997491;28;20049;-57
2022/07/11 09:46:57;;;;;;;6.78;4.28;;;21.50;99.90;;;;;;4990347;28;20118;-60
2022/07/11 09:49:35;;;;;;;6.38;4.50;;;21.50;99.90;;;;;;4998888;28;20058;-60
2022/07/11 09:52:26;;;;;;;11.52;4.65;;;21.30;99.90;;;;;;4991925;28;20507;-59
2022/07/11 09:55:02;;;;;;;10.45;6.28;;;21.30;99.90;;;;;;4989477;28;20030;-60
2022/07/11 09:57:40;;;;;;;8.48;5.28;;;21.40;99.90;;;;;;4990566;28;20045;-58
2022/07/11 10:00:09;;;;;;;10.05;6.30;;;21.30;99.90;;;;;;4990657;28;20400;-58
2022/07/11 10:02:35;;;;;;;6.28;5.18;;;21.20;99.90;;;;;;4991001;28;20120;-57
2022/07/11 10:05:01;;;;;;;7.53;4.97;;;21.20;99.90;;;;;;4991076;28;20492;-57
2022/07/11 10:07:28;;;;;;;7.93;5.68;;;21.10;99.90;;;;;;4989171;28;20057;-59
2022/07/11 10:09:54;;;;;;;9.52;5.40;;;21.10;99.90;;;;;;4991036;28;20502;-58
2022/07/11 10:12:20;;;;;;;7.38;5.13;;;21.10;99.90;;;;;;4993179;28;20169;-59
2022/07/11 10:14:48;;;;;;;8.15;5.68;;;21.40;99.90;;;;;;4991035;28;20803;-60
2022/07/11 10:17:25;;;;;;;6.25;5.10;;;21.40;99.90;;;;;;4992736;28;20042;-58
2022/07/11 10:20:17;;;;;;;8.32;5.50;;;21.50;99.90;;;;;;4968991;28;20054;-57
2022/07/11 10:22:57;;;;;;;15.73;8.15;;;21.40;99.90;;;;;;4987688;28;20499;-59
2022/07/11 10:26:00;;;;;;;12.85;8.50;;;21.10;99.90;;;;;;4991083;28;20508;-57
2022/07/11 10:28:48;;;;;;;16.55;9.60;;;20.70;99.90;;;;;;4991819;28;20088;-58
2022/07/11 10:31:21;;;;;;;16.48;9.60;;;20.70;99.90;;;;;;4993344;28;20515;-58
2022/07/11 10:34:00;;;;;;;13.80;11.07;;;20.70;99.90;;;;;;4996217;28;20559;-61
2022/07/11 10:36:29;;;;;;;12.70;9.55;;;20.70;99.90;;;;;;4990813;28;20428;-60
2022/07/11 10:39:27;;;;;;;12.82;9.68;;;20.90;99.90;;;;;;4996743;28;20038;-57
2022/07/11 10:42:03;;;;;;;14.60;10.75;;;20.90;99.90;;;;;;4985353;28;20092;-57
2022/07/11 10:44:52;;;;;;;12.18;10.00;;;20.90;99.90;;;;;;4990545;28;20105;-58
2022/07/11 10:47:35;;;;;;;12.10;9.82;;;20.90;99.90;;;;;;4991466;28;20034;-61
2022/07/11 10:50:07;;;;;;;13.13;10.23;;;20.40;99.90;;;;;;4991547;28;20069;-61
2022/07/11 10:52:36;;;;;;;13.10;10.55;;;20.50;99.90;;;;;;4989343;28;20042;-60
2022/07/11 10:55:12;;;;;;;13.05;11.23;;;20.50;99.90;;;;;;4987035;28;20034;-61
2022/07/11 10:57:43;;;;;;;12.65;11.10;;;20.30;99.90;;;;;;4989972;28;20102;-59
2022/07/11 11:00:14;;;;;;;18.80;9.80;;;20.50;99.90;;;;;;4991521;28;20023;-60
2022/07/11 11:02:59;;;;;;;16.25;10.30;;;21.00;99.90;;;;;;4990561;28;20053;-59
2022/07/11 11:05:48;;;;;;;14.95;10.43;;;21.10;99.90;;;;;;4991481;28;20025;-58
2022/07/11 11:08:41;;;;;;;15.38;9.75;;;20.90;99.90;;;;;;4991113;28;20076;-60
2022/07/11 11:11:19;;;;;;;26.10;10.07;;;21.30;99.90;;;;;;4993382;28;20031;-60
2022/07/11 11:14:17;;;;;;;19.92;8.90;;;21.10;99.90;;;;;;4984815;28;20034;-57
2022/07/11 11:16:43;;;;;;;11.27;8.15;;;21.30;99.90;;;;;;4988724;28;20092;-61
2022/07/11 11:19:44;;;;;;;13.88;9.07;;;21.60;99.90;;;;;;4965713;28;20495;-61
2022/07/11 11:22:16;;;;;;;13.25;7.88;;;21.90;99.90;;;;;;4980459;28;20046;-60
2022/07/11 11:24:43;;;;;;;12.65;8.50;;;21.90;99.90;;;;;;4994821;28;20508;-60
2022/07/11 11:27:23;;;;;;;12.60;7.45;;;22.00;99.90;;;;;;4991151;28;20117;-61
2022/07/11 11:29:53;;;;;;;10.23;7.85;;;22.40;99.20;;;;;;4990553;28;20145;-58
2022/07/11 11:32:22;;;;;;;8.77;7.35;;;22.50;98.90;;;;;;4988520;28;20516;-59
2022/07/11 11:34:48;;;;;;;13.25;8.43;;;22.40;98.50;;;;;;4989888;28;20018;-59
2022/07/11 11:37:16;;;;;;;8.48;7.57;;;22.50;99.30;;;;;;4990480;28;20040;-59
2022/07/11 11:39:42;;;;;;;9.15;7.80;;;22.70;98.20;;;;;;4990397;28;20059;-57
2022/07/11 11:42:11;;;;;;;10.75;8.23;;;22.80;98.10;;;;;;4987145;28;20444;-57
2022/07/11 11:45:07;;;;;;;10.70;8.75;;;22.90;98.20;;;;;;4984230;28;20030;-56
2022/07/11 11:47:35;;;;;;;11.45;9.25;;;22.70;97.80;;;;;;4986908;28;20432;-60
2022/07/11 11:50:01;;;;;;;11.57;9.38;;;22.30;98.70;;;;;;4983819;28;20292;-58
2022/07/11 11:52:32;;;;;;;10.80;8.68;;;22.40;99.40;;;;;;4986622;28;20517;-58
2022/07/11 11:54:58;;;;;;;10.77;8.45;;;22.90;98.30;;;;;;4983378;28;20110;-57
2022/07/11 11:57:27;;;;;;;10.57;8.90;;;23.00;97.00;;;;;;4989220;28;20018;-57
2022/07/11 11:59:52;;;;;;;10.90;9.25;;;22.60;98.70;;;;;;4993662;28;20030;-56
2022/07/11 12:02:23;;;;;;;12.43;8.75;;;22.50;98.30;;;;;;4992552;28;20038;-56
2022/07/11 12:04:49;;;;;;;11.48;9.30;;;22.80;98.00;;;;;;4993627;28;20040;-56
2022/07/11 12:07:22;;;;;;;13.23;9.25;;;22.90;97.10;;;;;;4989689;28;20484;-57
2022/07/11 12:09:54;;;;;;;12.02;9.70;;;23.10;97.80;;;;;;4989176;28;20034;-56
2022/07/11 12:15:21;;;;;;;13.00;8.90;;;23.40;97.60;;;;;;4989009;28;22023;-54
2022/07/11 12:17:47;;;;;;;12.52;9.23;;;23.60;96.40;;;;;;4988595;28;20123;-57
2022/07/11 12:20:12;;;;;;;10.48;8.35;;;23.30;97.30;;;;;;4964099;28;20129;-56
2022/07/11 12:22:43;;;;;;;10.57;7.70;;;23.40;96.40;;;;;;4990394;28;20026;-57
2022/07/11 12:25:10;;;;;;;13.18;8.38;;;23.10;96.30;;;;;;4990164;28;20059;-57
2022/07/11 12:27:36;;;;;;;14.30;8.35;;;23.00;97.20;;;;;;4992241;28;20030;-54
2022/07/11 12:30:03;;;;;;;9.55;6.72;;;23.10;97.00;;;;;;4990674;28;20077;-59
2022/07/11 12:32:28;;;;;;;7.97;6.43;;;23.30;96.80;;;;;;4992010;28;20489;-58
2022/07/11 12:34:54;;;;;;;10.57;7.45;;;23.10;96.50;;;;;;4993811;28;20030;-60
2022/07/11 12:37:20;;;;;;;9.45;6.40;;;23.10;97.40;;;;;;5003563;28;20033;-57
2022/07/11 12:40:00;;;;;;;9.07;6.47;;;23.00;97.10;;;;;;4994416;28;20018;-58
2022/07/11 12:42:33;;;;;;;8.32;5.53;;;22.90;97.30;;;;;;4991132;28;20055;-59
2022/07/11 12:45:07;;;;;;;;;;;22.80;97.20;;;;;;4993131;28;20125;-58
2022/07/11 12:47:43;;;;;;;6.28;4.15;;;22.60;97.60;;;;;;4991866;28;19902;-58
2022/07/11 12:50:14;;;;;;;5.95;3.72;;;22.50;98.30;;;;;;4996689;28;20026;-59
2022/07/11 12:52:45;;;;;;;4.95;3.40;;;22.40;98.30;;;;;;4991706;28;20547;-59
2022/07/11 12:55:19;;;;;;;5.82;3.00;;;22.40;98.10;;;;;;4985111;28;20062;-61
2022/07/11 12:58:03;;;;;;;3.95;3.00;;;22.20;98.20;;;;;;4992710;28;20026;-59